sensor_id;sensor_type;location;lat;lon;timestamp;temperature;humidity
39371;DHT22;25099;51.946;4.838;2022-09-09T00:01:51;15.50;99.90
39371;DHT22;25099;51.946;4.838;2022-09-09T00:04:25;15.50;99.90
39371;DHT22;25099;51.946;4.838;2022-09-09T00:07:01;15.40;99.90
39371;DHT22;25099;51.946;4.838;2022-09-09T00:09:31;15.40;99.90
39371;DHT22;25099;51.946;4.838;2022-09-09T00:12:04;15.30;99.90
39371;DHT22;25099;51.946;4.838;2022-09-09T00:14:54;15.30;99.90
39371;DHT22;25099;51.946;4.838;2022-09-09T00:17:47;15.30;99.90
39371;DHT22;25099;51.946;4.838;2022-09-09T00:28:18;15.20;99.90
39371;DHT22;25099;51.946;4.838;2022-09-09T00:30:44;15.10;99.90
39371;DHT22;25099;51.946;4.838;2022-09-09T00:33:15;15.10;99.90
39371;DHT22;25099;51.946;4.838;2022-09-09T00:35:45;15.10;99.90
39371;DHT22;25099;51.946;4.838;2022-09-09T00:38:17;15.10;99.90
39371;DHT22;25099;51.946;4.838;2022-09-09T00:40:51;15.00;99.90
39371;DHT22;25099;51.946;4.838;2022-09-09T00:46:16;15.00;99.90
39371;DHT22;25099;51.946;4.838;2022-09-09T00:51:56;15.00;99.90
39371;DHT22;25099;51.946;4.838;2022-09-09T00:57:32;14.90;99.90
39371;DHT22;25099;51.946;4.838;2022-09-09T01:00:20;14.90;99.90
39371;DHT22;25099;51.946;4.838;2022-09-09T01:12:03;14.70;99.90
39371;DHT22;25099;51.946;4.838;2022-09-09T01:17:26;14.70;99.90
39371;DHT22;25099;51.946;4.838;2022-09-09T01:26:04;14.60;99.90
39371;DHT22;25099;51.946;4.838;2022-09-09T01:28:34;14.60;99.90
39371;DHT22;25099;51.946;4.838;2022-09-09T01:31:04;14.60;99.90
39371;DHT22;25099;51.946;4.838;2022-09-09T01:33:31;14.60;99.90
39371;DHT22;25099;51.946;4.838;2022-09-09T01:36:17;14.60;99.90
39371;DHT22;25099;51.946;4.838;2022-09-09T01:38:45;14.60;99.90
39371;DHT22;25099;51.946;4.838;2022-09-09T01:41:10;14.60;99.90
39371;DHT22;25099;51.946;4.838;2022-09-09T01:43:36;14.70;99.90
39371;DHT22;25099;51.946;4.838;2022-09-09T01:46:02;14.70;99.90
39371;DHT22;25099;51.946;4.838;2022-09-09T01:48:29;14.70;99.90
39371;DHT22;25099;51.946;4.838;2022-09-09T01:50:55;14.70;99.90
39371;DHT22;25099;51.946;4.838;2022-09-09T01:53:21;14.80;99.90
39371;DHT22;25099;51.946;4.838;2022-09-09T02:03:31;14.90;99.90
39371;DHT22;25099;51.946;4.838;2022-09-09T02:06:16;14.80;99.90
39371;DHT22;25099;51.946;4.838;2022-09-09T02:08:47;14.80;99.90
39371;DHT22;25099;51.946;4.838;2022-09-09T02:11:16;14.70;99.90
39371;DHT22;25099;51.946;4.838;2022-09-09T02:13:45;14.80;99.90
39371;DHT22;25099;51.946;4.838;2022-09-09T02:18:45;14.60;99.90
39371;DHT22;25099;51.946;4.838;2022-09-09T02:21:13;14.70;99.90
39371;DHT22;25099;51.946;4.838;2022-09-09T02:23:41;14.70;99.90
39371;DHT22;25099;51.946;4.838;2022-09-09T02:26:09;14.60;99.90
39371;DHT22;25099;51.946;4.838;2022-09-09T02:28:37;14.60;99.90
39371;DHT22;25099;51.946;4.838;2022-09-09T02:31:04;14.60;99.90
39371;DHT22;25099;51.946;4.838;2022-09-09T02:33:41;14.50;99.90
39371;DHT22;25099;51.946;4.838;2022-09-09T02:36:08;14.50;99.90
39371;DHT22;25099;51.946;4.838;2022-09-09T02:38:39;14.50;99.90
39371;DHT22;25099;51.946;4.838;2022-09-09T02:41:06;14.50;99.90
39371;DHT22;25099;51.946;4.838;2022-09-09T02:43:33;14.40;99.90
39371;DHT22;25099;51.946;4.838;2022-09-09T02:52:00;14.30;99.90
39371;DHT22;25099;51.946;4.838;2022-09-09T02:54:30;14.30;99.90
39371;DHT22;25099;51.946;4.838;2022-09-09T02:57:04;14.30;99.90
39371;DHT22;25099;51.946;4.838;2022-09-09T02:59:32;14.30;99.90
39371;DHT22;25099;51.946;4.838;2022-09-09T03:01:57;14.20;99.90
39371;DHT22;25099;51.946;4.838;2022-09-09T03:04:23;14.20;99.90
39371;DHT22;25099;51.946;4.838;2022-09-09T03:06:50;14.20;99.90
39371;DHT22;25099;51.946;4.838;2022-09-09T03:09:16;14.20;99.90
39371;DHT22;25099;51.946;4.838;2022-09-09T03:11:41;14.20;99.90
39371;DHT22;25099;51.946;4.838;2022-09-09T03:14:07;14.20;99.90
39371;DHT22;25099;51.946;4.838;2022-09-09T03:16:33;14.20;99.90
39371;DHT22;25099;51.946;4.838;2022-09-09T03:19:00;14.10;99.90
39371;DHT22;25099;51.946;4.838;2022-09-09T03:21:28;14.10;99.90
39371;DHT22;25099;51.946;4.838;2022-09-09T03:23:54;14.10;99.90
39371;DHT22;25099;51.946;4.838;2022-09-09T03:26:19;14.10;99.90
39371;DHT22;25099;51.946;4.838;2022-09-09T03:28:45;14.00;99.90
39371;DHT22;25099;51.946;4.838;2022-09-09T03:31:13;14.10;99.90
39371;DHT22;25099;51.946;4.838;2022-09-09T03:33:40;14.00;99.90
39371;DHT22;25099;51.946;4.838;2022-09-09T03:36:06;14.00;99.90
39371;DHT22;25099;51.946;4.838;2022-09-09T03:38:33;14.00;99.90
39371;DHT22;25099;51.946;4.838;2022-09-09T03:40:59;14.00;99.90
39371;DHT22;25099;51.946;4.838;2022-09-09T03:43:27;14.00;99.90
39371;DHT22;25099;51.946;4.838;2022-09-09T03:45:54;13.90;99.90
39371;DHT22;25099;51.946;4.838;2022-09-09T03:48:23;13.90;99.90
39371;DHT22;25099;51.946;4.838;2022-09-09T03:50:51;13.90;99.90
39371;DHT22;25099;51.946;4.838;2022-09-09T03:53:20;13.90;99.90
39371;DHT22;25099;51.946;4.838;2022-09-09T03:55:48;13.90;99.90
39371;DHT22;25099;51.946;4.838;2022-09-09T03:58:16;13.90;99.90
39371;DHT22;25099;51.946;4.838;2022-09-09T04:00:52;13.90;99.90
39371;DHT22;25099;51.946;4.838;2022-09-09T04:03:18;13.90;99.90
39371;DHT22;25099;51.946;4.838;2022-09-09T04:05:44;13.90;99.90
39371;DHT22;25099;51.946;4.838;2022-09-09T04:08:09;13.80;99.90
39371;DHT22;25099;51.946;4.838;2022-09-09T04:10:35;13.70;99.90
39371;DHT22;25099;51.946;4.838;2022-09-09T04:13:03;13.80;99.90
39371;DHT22;25099;51.946;4.838;2022-09-09T04:15:29;13.80;99.90
39371;DHT22;25099;51.946;4.838;2022-09-09T04:17:54;13.80;99.90
39371;DHT22;25099;51.946;4.838;2022-09-09T04:20:20;13.80;99.90
39371;DHT22;25099;51.946;4.838;2022-09-09T04:22:47;13.80;99.90
39371;DHT22;25099;51.946;4.838;2022-09-09T04:25:13;13.80;99.90
39371;DHT22;25099;51.946;4.838;2022-09-09T04:27:38;13.80;99.90
39371;DHT22;25099;51.946;4.838;2022-09-09T04:30:05;13.80;99.90
39371;DHT22;25099;51.946;4.838;2022-09-09T04:32:33;13.80;99.90
39371;DHT22;25099;51.946;4.838;2022-09-09T04:34:58;13.80;99.90
39371;DHT22;25099;51.946;4.838;2022-09-09T04:37:24;13.80;99.90
39371;DHT22;25099;51.946;4.838;2022-09-09T04:39:50;13.80;99.90
39371;DHT22;25099;51.946;4.838;2022-09-09T04:42:16;13.80;99.90
39371;DHT22;25099;51.946;4.838;2022-09-09T04:44:43;13.80;99.90
39371;DHT22;25099;51.946;4.838;2022-09-09T04:47:09;13.80;99.90
39371;DHT22;25099;51.946;4.838;2022-09-09T04:49:35;13.80;99.90
39371;DHT22;25099;51.946;4.838;2022-09-09T04:52:02;13.90;99.90
39371;DHT22;25099;51.946;4.838;2022-09-09T04:54:29;13.80;99.90
39371;DHT22;25099;51.946;4.838;2022-09-09T04:56:54;14.00;99.90
39371;DHT22;25099;51.946;4.838;2022-09-09T04:59:20;13.80;99.90
39371;DHT22;25099;51.946;4.838;2022-09-09T05:01:47;13.90;99.90
39371;DHT22;25099;51.946;4.838;2022-09-09T05:04:13;13.80;99.90
39371;DHT22;25099;51.946;4.838;2022-09-09T05:06:41;13.80;99.90
39371;DHT22;25099;51.946;4.838;2022-09-09T05:09:08;13.80;99.90
39371;DHT22;25099;51.946;4.838;2022-09-09T05:11:34;13.90;99.90
39371;DHT22;25099;51.946;4.838;2022-09-09T05:14:02;13.80;99.90
39371;DHT22;25099;51.946;4.838;2022-09-09T05:16:28;13.90;99.90
39371;DHT22;25099;51.946;4.838;2022-09-09T05:18:54;13.80;99.90
39371;DHT22;25099;51.946;4.838;2022-09-09T05:21:21;13.90;99.90
39371;DHT22;25099;51.946;4.838;2022-09-09T05:23:48;13.90;99.90
39371;DHT22;25099;51.946;4.838;2022-09-09T05:26:15;13.90;99.90
39371;DHT22;25099;51.946;4.838;2022-09-09T05:28:41;13.90;99.90
39371;DHT22;25099;51.946;4.838;2022-09-09T05:31:09;13.90;99.90
39371;DHT22;25099;51.946;4.838;2022-09-09T05:33:37;14.00;99.90
39371;DHT22;25099;51.946;4.838;2022-09-09T05:36:11;13.90;99.90
39371;DHT22;25099;51.946;4.838;2022-09-09T05:38:40;14.00;99.90
39371;DHT22;25099;51.946;4.838;2022-09-09T05:41:06;14.00;99.90
39371;DHT22;25099;51.946;4.838;2022-09-09T05:43:32;14.00;99.90
39371;DHT22;25099;51.946;4.838;2022-09-09T05:46:06;14.10;99.90
39371;DHT22;25099;51.946;4.838;2022-09-09T05:48:41;14.10;99.90
39371;DHT22;25099;51.946;4.838;2022-09-09T05:51:13;14.20;99.90
39371;DHT22;25099;51.946;4.838;2022-09-09T05:53:41;14.30;99.90
39371;DHT22;25099;51.946;4.838;2022-09-09T05:56:08;14.30;99.90
39371;DHT22;25099;51.946;4.838;2022-09-09T05:58:36;14.30;99.90
39371;DHT22;25099;51.946;4.838;2022-09-09T06:01:14;14.40;99.90
39371;DHT22;25099;51.946;4.838;2022-09-09T06:03:41;14.40;99.90
39371;DHT22;25099;51.946;4.838;2022-09-09T06:06:12;14.60;99.90
39371;DHT22;25099;51.946;4.838;2022-09-09T06:08:40;14.60;99.90
39371;DHT22;25099;51.946;4.838;2022-09-09T06:11:07;14.70;99.90
39371;DHT22;25099;51.946;4.838;2022-09-09T06:13:34;14.80;99.90
39371;DHT22;25099;51.946;4.838;2022-09-09T06:16:00;14.80;99.90
39371;DHT22;25099;51.946;4.838;2022-09-09T06:18:26;15.00;99.90
39371;DHT22;25099;51.946;4.838;2022-09-09T06:21:00;15.10;99.90
39371;DHT22;25099;51.946;4.838;2022-09-09T06:23:32;15.20;99.90
39371;DHT22;25099;51.946;4.838;2022-09-09T06:26:15;15.30;99.90
39371;DHT22;25099;51.946;4.838;2022-09-09T06:28:44;15.50;99.90
39371;DHT22;25099;51.946;4.838;2022-09-09T06:31:11;15.60;99.90
39371;DHT22;25099;51.946;4.838;2022-09-09T06:33:39;15.70;99.90
39371;DHT22;25099;51.946;4.838;2022-09-09T06:36:11;15.70;99.90
39371;DHT22;25099;51.946;4.838;2022-09-09T06:38:37;15.80;99.90
39371;DHT22;25099;51.946;4.838;2022-09-09T06:41:04;15.80;99.90
39371;DHT22;25099;51.946;4.838;2022-09-09T06:43:31;15.90;99.90
39371;DHT22;25099;51.946;4.838;2022-09-09T06:46:04;16.00;99.90
39371;DHT22;25099;51.946;4.838;2022-09-09T06:48:30;16.20;99.90
39371;DHT22;25099;51.946;4.838;2022-09-09T06:51:08;16.30;99.90
39371;DHT22;25099;51.946;4.838;2022-09-09T06:53:35;16.50;99.90
39371;DHT22;25099;51.946;4.838;2022-09-09T06:56:22;16.60;99.90
39371;DHT22;25099;51.946;4.838;2022-09-09T06:58:49;16.70;99.90
39371;DHT22;25099;51.946;4.838;2022-09-09T07:01:21;16.80;99.90
39371;DHT22;25099;51.946;4.838;2022-09-09T07:03:50;16.90;99.90
39371;DHT22;25099;51.946;4.838;2022-09-09T07:06:21;16.90;99.90
39371;DHT22;25099;51.946;4.838;2022-09-09T07:08:54;17.00;99.90
39371;DHT22;25099;51.946;4.838;2022-09-09T07:11:22;17.00;99.90
39371;DHT22;25099;51.946;4.838;2022-09-09T07:13:48;17.00;99.90
39371;DHT22;25099;51.946;4.838;2022-09-09T07:16:17;17.00;99.90
39371;DHT22;25099;51.946;4.838;2022-09-09T07:18:43;17.00;99.90
39371;DHT22;25099;51.946;4.838;2022-09-09T07:21:11;17.00;99.90
39371;DHT22;25099;51.946;4.838;2022-09-09T07:23:37;17.10;99.90
39371;DHT22;25099;51.946;4.838;2022-09-09T07:26:09;17.20;99.90
39371;DHT22;25099;51.946;4.838;2022-09-09T07:28:36;17.20;99.90
39371;DHT22;25099;51.946;4.838;2022-09-09T07:31:02;17.20;99.90
39371;DHT22;25099;51.946;4.838;2022-09-09T07:33:29;17.20;99.90
39371;DHT22;25099;51.946;4.838;2022-09-09T07:36:22;17.10;99.90
39371;DHT22;25099;51.946;4.838;2022-09-09T07:38:51;17.00;99.90
39371;DHT22;25099;51.946;4.838;2022-09-09T07:41:26;17.10;99.90
39371;DHT22;25099;51.946;4.838;2022-09-09T07:43:52;16.90;99.90
39371;DHT22;25099;51.946;4.838;2022-09-09T07:46:24;17.20;99.90
39371;DHT22;25099;51.946;4.838;2022-09-09T07:48:52;17.30;99.90
39371;DHT22;25099;51.946;4.838;2022-09-09T07:51:21;17.40;99.90
39371;DHT22;25099;51.946;4.838;2022-09-09T07:53:48;17.50;99.90
39371;DHT22;25099;51.946;4.838;2022-09-09T07:56:17;17.50;99.90
39371;DHT22;25099;51.946;4.838;2022-09-09T07:58:45;17.50;99.90
39371;DHT22;25099;51.946;4.838;2022-09-09T08:01:15;17.60;99.90
39371;DHT22;25099;51.946;4.838;2022-09-09T08:03:42;17.60;99.90
39371;DHT22;25099;51.946;4.838;2022-09-09T08:06:08;17.60;99.90
39371;DHT22;25099;51.946;4.838;2022-09-09T08:08:35;17.50;99.90
39371;DHT22;25099;51.946;4.838;2022-09-09T08:11:13;17.50;99.90
39371;DHT22;25099;51.946;4.838;2022-09-09T08:13:40;17.50;99.90
39371;DHT22;25099;51.946;4.838;2022-09-09T08:16:20;17.40;99.90
39371;DHT22;25099;51.946;4.838;2022-09-09T08:18:52;17.30;99.90
39371;DHT22;25099;51.946;4.838;2022-09-09T08:21:21;17.30;99.90
39371;DHT22;25099;51.946;4.838;2022-09-09T08:23:48;17.20;99.90
39371;DHT22;25099;51.946;4.838;2022-09-09T08:26:17;17.20;99.90
39371;DHT22;25099;51.946;4.838;2022-09-09T08:28:52;17.20;99.90
39371;DHT22;25099;51.946;4.838;2022-09-09T08:31:19;17.30;99.90
39371;DHT22;25099;51.946;4.838;2022-09-09T08:33:45;17.40;99.90
39371;DHT22;25099;51.946;4.838;2022-09-09T08:36:14;17.50;99.90
39371;DHT22;25099;51.946;4.838;2022-09-09T08:38:41;17.70;99.90
39371;DHT22;25099;51.946;4.838;2022-09-09T08:41:30;17.80;99.90
39371;DHT22;25099;51.946;4.838;2022-09-09T08:55:26;17.80;99.90
39371;DHT22;25099;51.946;4.838;2022-09-09T08:57:52;17.80;99.90
39371;DHT22;25099;51.946;4.838;2022-09-09T09:00:19;17.70;99.90
39371;DHT22;25099;51.946;4.838;2022-09-09T09:06:24;17.60;99.90
39371;DHT22;25099;51.946;4.838;2022-09-09T09:11:56;17.50;99.90
39371;DHT22;25099;51.946;4.838;2022-09-09T09:14:28;17.50;99.90
39371;DHT22;25099;51.946;4.838;2022-09-09T09:17:12;17.50;99.90
39371;DHT22;25099;51.946;4.838;2022-09-09T09:19:41;17.50;99.90
39371;DHT22;25099;51.946;4.838;2022-09-09T09:22:14;17.60;99.90
39371;DHT22;25099;51.946;4.838;2022-09-09T09:30:29;17.60;99.90
39371;DHT22;25099;51.946;4.838;2022-09-09T09:33:02;17.60;99.90
39371;DHT22;25099;51.946;4.838;2022-09-09T09:35:31;17.60;99.90
39371;DHT22;25099;51.946;4.838;2022-09-09T09:37:56;17.60;99.90
39371;DHT22;25099;51.946;4.838;2022-09-09T09:40:22;17.60;99.90
39371;DHT22;25099;51.946;4.838;2022-09-09T09:42:59;17.60;99.90
39371;DHT22;25099;51.946;4.838;2022-09-09T09:45:32;17.50;99.90
39371;DHT22;25099;51.946;4.838;2022-09-09T09:48:02;17.50;99.90
39371;DHT22;25099;51.946;4.838;2022-09-09T09:50:29;17.40;99.90
39371;DHT22;25099;51.946;4.838;2022-09-09T09:53:03;17.50;99.90
39371;DHT22;25099;51.946;4.838;2022-09-09T09:55:36;17.40;99.90
39371;DHT22;25099;51.946;4.838;2022-09-09T09:58:15;17.60;99.90
39371;DHT22;25099;51.946;4.838;2022-09-09T10:00:49;17.50;99.90
39371;DHT22;25099;51.946;4.838;2022-09-09T10:05:53;17.70;99.90
39371;DHT22;25099;51.946;4.838;2022-09-09T10:08:19;17.90;99.90
39371;DHT22;25099;51.946;4.838;2022-09-09T10:16:34;18.50;99.90
39371;DHT22;25099;51.946;4.838;2022-09-09T10:19:05;18.80;99.90
39371;DHT22;25099;51.946;4.838;2022-09-09T10:24:42;19.40;99.90
39371;DHT22;25099;51.946;4.838;2022-09-09T10:32:37;19.60;99.90
39371;DHT22;25099;51.946;4.838;2022-09-09T10:38:11;19.60;99.90
39371;DHT22;25099;51.946;4.838;2022-09-09T10:43:44;19.50;99.90
39371;DHT22;25099;51.946;4.838;2022-09-09T10:49:22;19.50;99.90
39371;DHT22;25099;51.946;4.838;2022-09-09T10:52:05;19.40;99.90
39371;DHT22;25099;51.946;4.838;2022-09-09T10:54:46;19.30;99.90
39371;DHT22;25099;51.946;4.838;2022-09-09T11:00:04;19.00;99.90
39371;DHT22;25099;51.946;4.838;2022-09-09T11:02:33;18.80;99.90
39371;DHT22;25099;51.946;4.838;2022-09-09T11:05:19;18.60;99.90
39371;DHT22;25099;51.946;4.838;2022-09-09T11:08:04;18.40;99.90
39371;DHT22;25099;51.946;4.838;2022-09-09T11:13:35;18.30;99.90
39371;DHT22;25099;51.946;4.838;2022-09-09T11:16:32;18.20;99.90
39371;DHT22;25099;51.946;4.838;2022-09-09T11:21:38;18.00;99.90
39371;DHT22;25099;51.946;4.838;2022-09-09T11:26:57;17.80;99.90
39371;DHT22;25099;51.946;4.838;2022-09-09T11:32:26;17.70;99.90
39371;DHT22;25099;51.946;4.838;2022-09-09T11:38:21;17.80;99.90
39371;DHT22;25099;51.946;4.838;2022-09-09T11:41:04;17.90;99.90
39371;DHT22;25099;51.946;4.838;2022-09-09T11:43:52;18.20;99.90
39371;DHT22;25099;51.946;4.838;2022-09-09T11:46:21;18.50;99.90
39371;DHT22;25099;51.946;4.838;2022-09-09T11:49:02;18.80;99.90
39371;DHT22;25099;51.946;4.838;2022-09-09T11:51:30;19.00;99.90
39371;DHT22;25099;51.946;4.838;2022-09-09T11:54:01;19.20;99.90
39371;DHT22;25099;51.946;4.838;2022-09-09T11:56:32;19.20;99.90
39371;DHT22;25099;51.946;4.838;2022-09-09T12:04:01;19.50;99.90
39371;DHT22;25099;51.946;4.838;2022-09-09T12:06:33;19.50;99.90
39371;DHT22;25099;51.946;4.838;2022-09-09T12:09:12;19.70;99.90
39371;DHT22;25099;51.946;4.838;2022-09-09T12:11:40;19.90;99.90
39371;DHT22;25099;51.946;4.838;2022-09-09T12:14:23;20.10;99.90
39371;DHT22;25099;51.946;4.838;2022-09-09T12:17:21;20.20;99.90
39371;DHT22;25099;51.946;4.838;2022-09-09T12:19:48;20.40;99.90
39371;DHT22;25099;51.946;4.838;2022-09-09T12:25:20;20.60;99.90
39371;DHT22;25099;51.946;4.838;2022-09-09T12:28:04;20.70;99.90
39371;DHT22;25099;51.946;4.838;2022-09-09T12:33:20;20.60;99.90
39371;DHT22;25099;51.946;4.838;2022-09-09T12:35:53;20.60;99.90
39371;DHT22;25099;51.946;4.838;2022-09-09T12:38:31;20.40;99.90
39371;DHT22;25099;51.946;4.838;2022-09-09T12:40:58;20.30;99.90
39371;DHT22;25099;51.946;4.838;2022-09-09T12:43:27;20.30;99.90
39371;DHT22;25099;51.946;4.838;2022-09-09T12:46:06;20.50;99.90
39371;DHT22;25099;51.946;4.838;2022-09-09T12:48:41;20.60;99.90
39371;DHT22;25099;51.946;4.838;2022-09-09T12:53:51;20.60;99.90
39371;DHT22;25099;51.946;4.838;2022-09-09T12:56:35;20.50;99.90
39371;DHT22;25099;51.946;4.838;2022-09-09T12:59:01;20.50;99.90
39371;DHT22;25099;51.946;4.838;2022-09-09T13:01:31;20.40;99.90
39371;DHT22;25099;51.946;4.838;2022-09-09T13:03:58;20.30;99.90
39371;DHT22;25099;51.946;4.838;2022-09-09T13:06:29;20.20;99.90
39371;DHT22;25099;51.946;4.838;2022-09-09T13:08:57;20.10;99.90
39371;DHT22;25099;51.946;4.838;2022-09-09T13:11:40;19.90;99.90
39371;DHT22;25099;51.946;4.838;2022-09-09T13:14:19;19.60;99.90
39371;DHT22;25099;51.946;4.838;2022-09-09T13:16:56;19.40;99.90
39371;DHT22;25099;51.946;4.838;2022-09-09T13:19:22;19.20;99.90
39371;DHT22;25099;51.946;4.838;2022-09-09T13:21:47;19.00;99.90
39371;DHT22;25099;51.946;4.838;2022-09-09T13:24:29;18.90;99.90
39371;DHT22;25099;51.946;4.838;2022-09-09T13:27:02;18.70;99.90
39371;DHT22;25099;51.946;4.838;2022-09-09T13:29:28;18.50;99.90
39371;DHT22;25099;51.946;4.838;2022-09-09T13:32:16;18.40;99.90
39371;DHT22;25099;51.946;4.838;2022-09-09T13:37:36;18.30;99.90
39371;DHT22;25099;51.946;4.838;2022-09-09T13:40:04;18.20;99.90
39371;DHT22;25099;51.946;4.838;2022-09-09T13:42:34;18.20;99.90
39371;DHT22;25099;51.946;4.838;2022-09-09T13:45:03;18.20;99.90
39371;DHT22;25099;51.946;4.838;2022-09-09T13:47:34;18.60;99.90
39371;DHT22;25099;51.946;4.838;2022-09-09T13:50:23;19.00;99.90
39371;DHT22;25099;51.946;4.838;2022-09-09T13:52:50;19.60;99.90
39371;DHT22;25099;51.946;4.838;2022-09-09T13:55:19;20.00;99.90
39371;DHT22;25099;51.946;4.838;2022-09-09T13:57:57;20.20;99.90
39371;DHT22;25099;51.946;4.838;2022-09-09T14:00:24;20.30;99.90
39371;DHT22;25099;51.946;4.838;2022-09-09T14:02:50;20.30;99.90
39371;DHT22;25099;51.946;4.838;2022-09-09T14:05:17;20.20;99.90
39371;DHT22;25099;51.946;4.838;2022-09-09T14:07:43;20.10;99.90
39371;DHT22;25099;51.946;4.838;2022-09-09T14:10:10;20.00;99.90
39371;DHT22;25099;51.946;4.838;2022-09-09T14:12:35;19.80;99.90
39371;DHT22;25099;51.946;4.838;2022-09-09T14:15:05;20.00;99.90
39371;DHT22;25099;51.946;4.838;2022-09-09T14:17:31;19.90;99.90
39371;DHT22;25099;51.946;4.838;2022-09-09T14:19:57;19.80;99.90
39371;DHT22;25099;51.946;4.838;2022-09-09T14:22:23;19.80;99.90
39371;DHT22;25099;51.946;4.838;2022-09-09T14:24:49;19.60;99.90
39371;DHT22;25099;51.946;4.838;2022-09-09T14:27:16;19.50;99.90
39371;DHT22;25099;51.946;4.838;2022-09-09T14:29:42;19.40;99.90
39371;DHT22;25099;51.946;4.838;2022-09-09T14:32:09;19.20;99.90
39371;DHT22;25099;51.946;4.838;2022-09-09T14:34:35;19.10;99.90
39371;DHT22;25099;51.946;4.838;2022-09-09T14:37:00;19.00;99.90
39371;DHT22;25099;51.946;4.838;2022-09-09T14:39:26;19.00;99.90
39371;DHT22;25099;51.946;4.838;2022-09-09T14:41:52;18.90;99.90
39371;DHT22;25099;51.946;4.838;2022-09-09T14:44:17;18.80;99.90
39371;DHT22;25099;51.946;4.838;2022-09-09T14:46:44;18.80;99.90
39371;DHT22;25099;51.946;4.838;2022-09-09T14:49:09;18.80;99.90
39371;DHT22;25099;51.946;4.838;2022-09-09T14:51:38;18.80;99.90
39371;DHT22;25099;51.946;4.838;2022-09-09T14:54:04;18.70;99.90
39371;DHT22;25099;51.946;4.838;2022-09-09T14:56:32;18.80;99.90
39371;DHT22;25099;51.946;4.838;2022-09-09T14:58:59;18.80;99.90
39371;DHT22;25099;51.946;4.838;2022-09-09T15:01:26;18.90;99.90
39371;DHT22;25099;51.946;4.838;2022-09-09T15:03:54;18.90;99.90
39371;DHT22;25099;51.946;4.838;2022-09-09T15:06:21;18.90;99.90
39371;DHT22;25099;51.946;4.838;2022-09-09T15:08:49;18.90;99.90
39371;DHT22;25099;51.946;4.838;2022-09-09T15:11:15;19.00;99.90
39371;DHT22;25099;51.946;4.838;2022-09-09T15:13:42;19.00;99.90
39371;DHT22;25099;51.946;4.838;2022-09-09T15:18:35;19.10;99.90
39371;DHT22;25099;51.946;4.838;2022-09-09T15:21:02;19.20;99.90
39371;DHT22;25099;51.946;4.838;2022-09-09T15:23:32;19.20;99.90
39371;DHT22;25099;51.946;4.838;2022-09-09T15:25:57;19.30;99.90
39371;DHT22;25099;51.946;4.838;2022-09-09T15:28:24;19.30;99.90
39371;DHT22;25099;51.946;4.838;2022-09-09T15:30:51;19.30;99.90
39371;DHT22;25099;51.946;4.838;2022-09-09T15:33:18;19.30;99.90
39371;DHT22;25099;51.946;4.838;2022-09-09T15:35:43;19.30;99.90
39371;DHT22;25099;51.946;4.838;2022-09-09T15:38:10;19.30;99.90
39371;DHT22;25099;51.946;4.838;2022-09-09T15:40:35;19.20;99.90
39371;DHT22;25099;51.946;4.838;2022-09-09T15:43:05;19.20;99.90
39371;DHT22;25099;51.946;4.838;2022-09-09T15:45:31;19.20;99.90
39371;DHT22;25099;51.946;4.838;2022-09-09T15:48:01;19.10;99.90
39371;DHT22;25099;51.946;4.838;2022-09-09T15:50:27;19.20;99.90
39371;DHT22;25099;51.946;4.838;2022-09-09T15:52:55;19.30;99.90
39371;DHT22;25099;51.946;4.838;2022-09-09T15:55:20;19.50;99.90
39371;DHT22;25099;51.946;4.838;2022-09-09T15:57:46;19.80;99.90
39371;DHT22;25099;51.946;4.838;2022-09-09T16:00:13;20.10;99.90
39371;DHT22;25099;51.946;4.838;2022-09-09T16:02:39;20.50;99.90
39371;DHT22;25099;51.946;4.838;2022-09-09T16:05:05;20.70;99.90
39371;DHT22;25099;51.946;4.838;2022-09-09T16:07:31;20.70;99.90
39371;DHT22;25099;51.946;4.838;2022-09-09T16:09:57;20.80;99.90
39371;DHT22;25099;51.946;4.838;2022-09-09T16:12:22;21.00;99.90
39371;DHT22;25099;51.946;4.838;2022-09-09T16:14:48;21.20;99.90
39371;DHT22;25099;51.946;4.838;2022-09-09T16:17:13;21.20;99.90
39371;DHT22;25099;51.946;4.838;2022-09-09T16:19:40;21.10;99.90
39371;DHT22;25099;51.946;4.838;2022-09-09T16:22:06;21.00;99.90
39371;DHT22;25099;51.946;4.838;2022-09-09T16:24:32;20.80;99.90
39371;DHT22;25099;51.946;4.838;2022-09-09T16:26:58;20.70;99.90
39371;DHT22;25099;51.946;4.838;2022-09-09T16:29:24;20.60;99.90
39371;DHT22;25099;51.946;4.838;2022-09-09T16:31:53;20.50;99.90
39371;DHT22;25099;51.946;4.838;2022-09-09T16:34:19;20.40;99.90
39371;DHT22;25099;51.946;4.838;2022-09-09T16:36:46;20.30;99.90
39371;DHT22;25099;51.946;4.838;2022-09-09T16:39:18;20.30;99.90
39371;DHT22;25099;51.946;4.838;2022-09-09T16:41:44;20.30;99.90
39371;DHT22;25099;51.946;4.838;2022-09-09T16:44:11;20.30;99.90
39371;DHT22;25099;51.946;4.838;2022-09-09T16:46:40;20.20;99.90
39371;DHT22;25099;51.946;4.838;2022-09-09T16:49:08;20.10;99.90
39371;DHT22;25099;51.946;4.838;2022-09-09T16:51:40;20.10;99.90
39371;DHT22;25099;51.946;4.838;2022-09-09T16:54:07;20.10;99.90
39371;DHT22;25099;51.946;4.838;2022-09-09T16:56:35;20.00;99.90
39371;DHT22;25099;51.946;4.838;2022-09-09T16:59:05;19.90;99.90
39371;DHT22;25099;51.946;4.838;2022-09-09T17:01:33;19.80;99.90
39371;DHT22;25099;51.946;4.838;2022-09-09T17:04:04;19.70;99.90
39371;DHT22;25099;51.946;4.838;2022-09-09T17:06:31;19.70;99.90
39371;DHT22;25099;51.946;4.838;2022-09-09T17:08:59;19.50;99.90
39371;DHT22;25099;51.946;4.838;2022-09-09T17:11:27;19.50;99.90
39371;DHT22;25099;51.946;4.838;2022-09-09T17:13:54;19.40;99.90
39371;DHT22;25099;51.946;4.838;2022-09-09T17:16:22;19.20;99.90
39371;DHT22;25099;51.946;4.838;2022-09-09T17:18:49;19.10;99.90
39371;DHT22;25099;51.946;4.838;2022-09-09T17:21:18;18.80;99.90
39371;DHT22;25099;51.946;4.838;2022-09-09T17:23:44;18.60;99.90
39371;DHT22;25099;51.946;4.838;2022-09-09T17:26:13;18.40;99.90
39371;DHT22;25099;51.946;4.838;2022-09-09T17:28:40;18.20;99.90
39371;DHT22;25099;51.946;4.838;2022-09-09T17:31:07;18.20;99.90
39371;DHT22;25099;51.946;4.838;2022-09-09T17:33:35;18.10;99.90
39371;DHT22;25099;51.946;4.838;2022-09-09T17:36:02;18.00;99.90
39371;DHT22;25099;51.946;4.838;2022-09-09T17:38:28;17.90;99.90
39371;DHT22;25099;51.946;4.838;2022-09-09T17:41:01;17.90;99.90
39371;DHT22;25099;51.946;4.838;2022-09-09T17:43:27;17.80;99.90
39371;DHT22;25099;51.946;4.838;2022-09-09T17:45:53;17.80;99.90
39371;DHT22;25099;51.946;4.838;2022-09-09T17:48:18;17.80;99.90
39371;DHT22;25099;51.946;4.838;2022-09-09T17:50:44;17.80;99.90
39371;DHT22;25099;51.946;4.838;2022-09-09T17:53:09;17.80;99.90
39371;DHT22;25099;51.946;4.838;2022-09-09T17:55:35;17.80;99.90
39371;DHT22;25099;51.946;4.838;2022-09-09T17:58:00;17.80;99.90
39371;DHT22;25099;51.946;4.838;2022-09-09T18:00:26;17.70;99.90
39371;DHT22;25099;51.946;4.838;2022-09-09T18:02:52;17.70;99.90